sensor_id;sensor_type;location;lat;lon;timestamp;pressure;altitude;pressure_sealevel;temperature;humidity
48606;BME280;8482;54.396;18.590;2023-10-31T00:00:46;100006.72;;;10.62;96.69
48606;BME280;8482;54.396;18.590;2023-10-31T00:03:12;99998.91;;;10.60;96.69
48606;BME280;8482;54.396;18.590;2023-10-31T00:05:38;99999.75;;;10.61;97.12
48606;BME280;8482;54.396;18.590;2023-10-31T00:08:04;99997.09;;;10.61;96.96
48606;BME280;8482;54.396;18.590;2023-10-31T00:10:30;99994.31;;;10.62;97.48
48606;BME280;8482;54.396;18.590;2023-10-31T00:12:57;100007.44;;;10.64;97.35
48606;BME280;8482;54.396;18.590;2023-10-31T00:15:23;99990.53;;;10.55;97.79
48606;BME280;8482;54.396;18.590;2023-10-31T00:17:50;100007.28;;;10.65;97.79
48606;BME280;8482;54.396;18.590;2023-10-31T00:20:16;100006.19;;;10.68;97.89
48606;BME280;8482;54.396;18.590;2023-10-31T00:22:42;100002.81;;;10.66;97.90
48606;BME280;8482;54.396;18.590;2023-10-31T00:25:08;99993.75;;;10.68;97.78
48606;BME280;8482;54.396;18.590;2023-10-31T00:27:34;99984.09;;;10.67;98.12
48606;BME280;8482;54.396;18.590;2023-10-31T00:30:00;99983.13;;;10.68;97.76
48606;BME280;8482;54.396;18.590;2023-10-31T00:32:26;99970.84;;;10.67;98.13
48606;BME280;8482;54.396;18.590;2023-10-31T00:34:52;99977.97;;;10.67;98.04
48606;BME280;8482;54.396;18.590;2023-10-31T00:37:17;99968.19;;;10.67;98.10
48606;BME280;8482;54.396;18.590;2023-10-31T00:39:43;99968.19;;;10.67;98.05
48606;BME280;8482;54.396;18.590;2023-10-31T00:42:09;99953.41;;;10.65;97.98
48606;BME280;8482;54.396;18.590;2023-10-31T00:44:35;99966.50;;;10.66;97.95
48606;BME280;8482;54.396;18.590;2023-10-31T00:47:01;99951.72;;;10.64;98.36
48606;BME280;8482;54.396;18.590;2023-10-31T00:49:27;99949.94;;;10.64;98.16
48606;BME280;8482;54.396;18.590;2023-10-31T00:51:53;99950.06;;;10.63;98.68
48606;BME280;8482;54.396;18.590;2023-10-31T00:54:19;99935.81;;;10.64;98.43
48606;BME280;8482;54.396;18.590;2023-10-31T00:56:44;99940.16;;;10.65;98.65
48606;BME280;8482;54.396;18.590;2023-10-31T00:59:11;99933.16;;;10.64;98.69
48606;BME280;8482;54.396;18.590;2023-10-31T01:01:37;99932.34;;;10.63;98.59
48606;BME280;8482;54.396;18.590;2023-10-31T01:04:03;99927.84;;;10.64;98.92
48606;BME280;8482;54.396;18.590;2023-10-31T01:06:29;99926.34;;;10.61;98.57
48606;BME280;8482;54.396;18.590;2023-10-31T01:08:55;99918.38;;;10.61;98.56
48606;BME280;8482;54.396;18.590;2023-10-31T01:11:21;99916.56;;;10.62;98.76
48606;BME280;8482;54.396;18.590;2023-10-31T01:13:46;99916.56;;;10.62;98.73
48606;BME280;8482;54.396;18.590;2023-10-31T01:16:12;99893.97;;;10.57;98.88
48606;BME280;8482;54.396;18.590;2023-10-31T01:18:38;99891.97;;;10.60;99.06
48606;BME280;8482;54.396;18.590;2023-10-31T01:21:04;99896.31;;;10.61;98.66
48606;BME280;8482;54.396;18.590;2023-10-31T01:23:30;99888.50;;;10.59;98.96
48606;BME280;8482;54.396;18.590;2023-10-31T01:25:56;99882.78;;;10.54;98.70
48606;BME280;8482;54.396;18.590;2023-10-31T01:28:21;99885.31;;;10.55;98.93
48606;BME280;8482;54.396;18.590;2023-10-31T01:30:47;99873.84;;;10.55;98.87
48606;BME280;8482;54.396;18.590;2023-10-31T01:33:13;99865.34;;;10.51;99.06
48606;BME280;8482;54.396;18.590;2023-10-31T01:35:39;99875.81;;;10.53;99.22
48606;BME280;8482;54.396;18.590;2023-10-31T01:38:05;99876.66;;;10.53;99.01
48606;BME280;8482;54.396;18.590;2023-10-31T01:40:31;99861.88;;;10.51;99.15
48606;BME280;8482;54.396;18.590;2023-10-31T01:42:56;99859.50;;;10.48;99.13
48606;BME280;8482;54.396;18.590;2023-10-31T01:45:22;99869.84;;;10.51;99.31
48606;BME280;8482;54.396;18.590;2023-10-31T01:47:48;99867.19;;;10.51;99.33
48606;BME280;8482;54.396;18.590;2023-10-31T01:50:16;99856.69;;;10.49;99.14
48606;BME280;8482;54.396;18.590;2023-10-31T01:52:43;99849.59;;;10.50;99.26
48606;BME280;8482;54.396;18.590;2023-10-31T01:55:10;99841.91;;;10.47;99.34
48606;BME280;8482;54.396;18.590;2023-10-31T01:57:37;99824.50;;;10.44;99.49
48606;BME280;8482;54.396;18.590;2023-10-31T02:00:05;99822.38;;;10.48;99.57
48606;BME280;8482;54.396;18.590;2023-10-31T02:02:34;99808.44;;;10.46;99.61
48606;BME280;8482;54.396;18.590;2023-10-31T02:05:01;99802.44;;;10.43;99.59
48606;BME280;8482;54.396;18.590;2023-10-31T02:07:26;99794.91;;;10.39;99.63
48606;BME280;8482;54.396;18.590;2023-10-31T02:09:52;99792.38;;;10.37;99.64
48606;BME280;8482;54.396;18.590;2023-10-31T02:12:35;99794.09;;;10.38;99.43
48606;BME280;8482;54.396;18.590;2023-10-31T02:15:02;99779.25;;;10.36;99.45
48606;BME280;8482;54.396;18.590;2023-10-31T02:17:28;99770.59;;;10.34;99.96
48606;BME280;8482;54.396;18.590;2023-10-31T02:19:55;99760.31;;;10.31;99.53
48606;BME280;8482;54.396;18.590;2023-10-31T02:22:22;99763.25;;;10.27;99.84
48606;BME280;8482;54.396;18.590;2023-10-31T02:24:48;99757.94;;;10.27;99.66
48606;BME280;8482;54.396;18.590;2023-10-31T02:27:14;99755.72;;;10.23;98.89
48606;BME280;8482;54.396;18.590;2023-10-31T02:29:40;99748.34;;;10.17;99.18
48606;BME280;8482;54.396;18.590;2023-10-31T02:32:06;99751.97;;;10.16;99.19
48606;BME280;8482;54.396;18.590;2023-10-31T02:34:32;99742.50;;;10.13;99.35
48606;BME280;8482;54.396;18.590;2023-10-31T02:36:57;99745.31;;;10.11;99.34
48606;BME280;8482;54.396;18.590;2023-10-31T02:39:23;99733.03;;;10.10;99.51
48606;BME280;8482;54.396;18.590;2023-10-31T02:41:49;99726.34;;;10.06;99.67
48606;BME280;8482;54.396;18.590;2023-10-31T02:44:15;99718.13;;;10.00;99.13
48606;BME280;8482;54.396;18.590;2023-10-31T02:46:41;99716.28;;;10.00;99.10
48606;BME280;8482;54.396;18.590;2023-10-31T02:49:07;99713.09;;;9.96;99.14
48606;BME280;8482;54.396;18.590;2023-10-31T02:51:35;99709.91;;;9.93;99.02
48606;BME280;8482;54.396;18.590;2023-10-31T02:54:01;99704.06;;;9.89;99.10
48606;BME280;8482;54.396;18.590;2023-10-31T02:56:27;99688.72;;;9.83;99.37
48606;BME280;8482;54.396;18.590;2023-10-31T02:58:53;99699.88;;;9.87;99.25
48606;BME280;8482;54.396;18.590;2023-10-31T03:01:18;99681.31;;;9.87;99.62
48606;BME280;8482;54.396;18.590;2023-10-31T03:03:45;99655.31;;;9.72;99.83
48606;BME280;8482;54.396;18.590;2023-10-31T03:06:11;99670.88;;;9.85;99.66
48606;BME280;8482;54.396;18.590;2023-10-31T03:08:37;99660.44;;;9.84;99.97
48606;BME280;8482;54.396;18.590;2023-10-31T03:11:03;99653.47;;;9.82;100.00
48606;BME280;8482;54.396;18.590;2023-10-31T03:13:28;99654.72;;;9.88;100.00
48606;BME280;8482;54.396;18.590;2023-10-31T03:15:54;99653.59;;;9.91;100.00
48606;BME280;8482;54.396;18.590;2023-10-31T03:18:20;99643.28;;;9.88;100.00
48606;BME280;8482;54.396;18.590;2023-10-31T03:20:46;99644.66;;;9.92;100.00
48606;BME280;8482;54.396;18.590;2023-10-31T03:23:13;99627.25;;;9.89;100.00
48606;BME280;8482;54.396;18.590;2023-10-31T03:25:39;99618.59;;;9.87;100.00
48606;BME280;8482;54.396;18.590;2023-10-31T03:28:18;99615.69;;;9.90;100.00
48606;BME280;8482;54.396;18.590;2023-10-31T03:30:50;99607.56;;;9.92;100.00
48606;BME280;8482;54.396;18.590;2023-10-31T03:33:17;99597.25;;;9.89;100.00
48606;BME280;8482;54.396;18.590;2023-10-31T03:35:44;99594.50;;;9.90;100.00
48606;BME280;8482;54.396;18.590;2023-10-31T03:38:10;99584.72;;;9.91;100.00
48606;BME280;8482;54.396;18.590;2023-10-31T03:40:36;99587.34;;;9.91;100.00
48606;BME280;8482;54.396;18.590;2023-10-31T03:43:02;99565.03;;;9.93;100.00
48606;BME280;8482;54.396;18.590;2023-10-31T03:45:29;99557.09;;;9.93;100.00
48606;BME280;8482;54.396;18.590;2023-10-31T03:47:54;99566.56;;;9.96;100.00
48606;BME280;8482;54.396;18.590;2023-10-31T03:50:20;99551.66;;;9.95;100.00
48606;BME280;8482;54.396;18.590;2023-10-31T03:52:46;99550.00;;;9.94;100.00
48606;BME280;8482;54.396;18.590;2023-10-31T03:55:12;99525.22;;;9.85;100.00
48606;BME280;8482;54.396;18.590;2023-10-31T03:57:38;99538.53;;;9.93;100.00
48606;BME280;8482;54.396;18.590;2023-10-31T04:00:04;99537.56;;;9.94;100.00
48606;BME280;8482;54.396;18.590;2023-10-31T04:02:33;99526.00;;;9.95;100.00
48606;BME280;8482;54.396;18.590;2023-10-31T04:04:59;99515.72;;;9.92;100.00
48606;BME280;8482;54.396;18.590;2023-10-31T04:07:25;99511.63;;;9.98;100.00
48606;BME280;8482;54.396;18.590;2023-10-31T04:09:50;99506.34;;;9.98;100.00
48606;BME280;8482;54.396;18.590;2023-10-31T04:12:17;99502.03;;;9.97;100.00
48606;BME280;8482;54.396;18.590;2023-10-31T04:14:42;99491.44;;;9.97;100.00
48606;BME280;8482;54.396;18.590;2023-10-31T04:17:08;99489.75;;;9.96;100.00
48606;BME280;8482;54.396;18.590;2023-10-31T04:19:37;99488.78;;;9.97;100.00
48606;BME280;8482;54.396;18.590;2023-10-31T04:22:03;99482.63;;;9.96;100.00
48606;BME280;8482;54.396;18.590;2023-10-31T04:24:29;99468.69;;;9.94;100.00
48606;BME280;8482;54.396;18.590;2023-10-31T04:26:54;99460.91;;;9.93;100.00
48606;BME280;8482;54.396;18.590;2023-10-31T04:29:20;99453.78;;;9.93;100.00
48606;BME280;8482;54.396;18.590;2023-10-31T04:31:46;99451.53;;;9.99;100.00
48606;BME280;8482;54.396;18.590;2023-10-31T04:34:12;99438.44;;;9.97;100.00
48606;BME280;8482;54.396;18.590;2023-10-31T04:36:38;99445.41;;;9.98;100.00
48606;BME280;8482;54.396;18.590;2023-10-31T04:39:04;99431.31;;;9.97;100.00
48606;BME280;8482;54.396;18.590;2023-10-31T04:41:30;99421.00;;;9.94;100.00
48606;BME280;8482;54.396;18.590;2023-10-31T04:43:56;99420.03;;;9.95;100.00
48606;BME280;8482;54.396;18.590;2023-10-31T04:46:21;99415.13;;;10.01;100.00
48606;BME280;8482;54.396;18.590;2023-10-31T04:48:47;99417.78;;;10.01;100.00
48606;BME280;8482;54.396;18.590;2023-10-31T04:51:13;99414.84;;;10.04;100.00
48606;BME280;8482;54.396;18.590;2023-10-31T04:53:39;99416.63;;;10.03;100.00
48606;BME280;8482;54.396;18.590;2023-10-31T04:56:12;99412.84;;;10.06;100.00
48606;BME280;8482;54.396;18.590;2023-10-31T04:58:39;99409.38;;;10.05;100.00
48606;BME280;8482;54.396;18.590;2023-10-31T05:01:12;99409.22;;;10.07;100.00
48606;BME280;8482;54.396;18.590;2023-10-31T05:03:39;99406.72;;;10.05;100.00
48606;BME280;8482;54.396;18.590;2023-10-31T05:06:05;99392.50;;;10.06;100.00
48606;BME280;8482;54.396;18.590;2023-10-31T05:08:32;99393.69;;;10.12;100.00
48606;BME280;8482;54.396;18.590;2023-10-31T05:10:58;99379.63;;;10.11;100.00
48606;BME280;8482;54.396;18.590;2023-10-31T05:13:25;99373.03;;;10.16;100.00
48606;BME280;8482;54.396;18.590;2023-10-31T05:15:51;99357.81;;;10.18;100.00
48606;BME280;8482;54.396;18.590;2023-10-31T05:18:17;99350.53;;;10.20;100.00
48606;BME280;8482;54.396;18.590;2023-10-31T05:20:43;99344.41;;;10.19;100.00
48606;BME280;8482;54.396;18.590;2023-10-31T05:23:09;99339.25;;;10.18;100.00
48606;BME280;8482;54.396;18.590;2023-10-31T05:25:35;99332.97;;;10.19;100.00
48606;BME280;8482;54.396;18.590;2023-10-31T05:28:02;99326.69;;;10.20;100.00
48606;BME280;8482;54.396;18.590;2023-10-31T05:30:28;99337.13;;;10.21;100.00
48606;BME280;8482;54.396;18.590;2023-10-31T05:32:53;99331.81;;;10.21;100.00
48606;BME280;8482;54.396;18.590;2023-10-31T05:35:19;99339.66;;;10.23;100.00
48606;BME280;8482;54.396;18.590;2023-10-31T05:37:46;99323.56;;;10.24;100.00
48606;BME280;8482;54.396;18.590;2023-10-31T05:40:13;99327.91;;;10.25;100.00
48606;BME280;8482;54.396;18.590;2023-10-31T05:42:39;99320.75;;;10.26;100.00
48606;BME280;8482;54.396;18.590;2023-10-31T05:45:05;99316.31;;;10.26;100.00
48606;BME280;8482;54.396;18.590;2023-10-31T05:47:31;99312.81;;;10.26;100.00
48606;BME280;8482;54.396;18.590;2023-10-31T05:49:58;99302.88;;;10.28;100.00
48606;BME280;8482;54.396;18.590;2023-10-31T05:52:28;99297.47;;;10.30;100.00
48606;BME280;8482;54.396;18.590;2023-10-31T05:54:55;99294.63;;;10.31;100.00
48606;BME280;8482;54.396;18.590;2023-10-31T05:57:22;99285.69;;;10.32;100.00
48606;BME280;8482;54.396;18.590;2023-10-31T05:59:48;99282.88;;;10.34;100.00
48606;BME280;8482;54.396;18.590;2023-10-31T06:02:14;99279.25;;;10.35;100.00
48606;BME280;8482;54.396;18.590;2023-10-31T06:04:40;99277.44;;;10.35;100.00
48606;BME280;8482;54.396;18.590;2023-10-31T06:07:07;99258.72;;;10.37;100.00
48606;BME280;8482;54.396;18.590;2023-10-31T06:09:33;99263.06;;;10.38;100.00
48606;BME280;8482;54.396;18.590;2023-10-31T06:12:02;99248.66;;;10.40;100.00
48606;BME280;8482;54.396;18.590;2023-10-31T06:14:28;99246.47;;;10.36;100.00
48606;BME280;8482;54.396;18.590;2023-10-31T06:16:54;99252.97;;;10.41;100.00
48606;BME280;8482;54.396;18.590;2023-10-31T06:19:22;99235.28;;;10.42;100.00
48606;BME280;8482;54.396;18.590;2023-10-31T06:21:47;99232.09;;;10.38;100.00
48606;BME280;8482;54.396;18.590;2023-10-31T06:24:14;99228.00;;;10.44;100.00
48606;BME280;8482;54.396;18.590;2023-10-31T06:26:39;99220.03;;;10.44;100.00
48606;BME280;8482;54.396;18.590;2023-10-31T06:29:05;99220.56;;;10.48;100.00
48606;BME280;8482;54.396;18.590;2023-10-31T06:31:31;99212.44;;;10.49;100.00
48606;BME280;8482;54.396;18.590;2023-10-31T06:33:57;99203.66;;;10.49;100.00
48606;BME280;8482;54.396;18.590;2023-10-31T06:36:23;99196.22;;;10.52;100.00
48606;BME280;8482;54.396;18.590;2023-10-31T06:38:49;99193.94;;;10.57;100.00
48606;BME280;8482;54.396;18.590;2023-10-31T06:41:15;99192.44;;;10.63;100.00
48606;BME280;8482;54.396;18.590;2023-10-31T06:43:41;99187.47;;;10.68;100.00
48606;BME280;8482;54.396;18.590;2023-10-31T06:46:07;99180.69;;;10.74;100.00
48606;BME280;8482;54.396;18.590;2023-10-31T06:48:33;99167.63;;;10.81;100.00
48606;BME280;8482;54.396;18.590;2023-10-31T06:50:59;99168.66;;;10.88;100.00
48606;BME280;8482;54.396;18.590;2023-10-31T06:53:25;99162.34;;;10.89;100.00
48606;BME280;8482;54.396;18.590;2023-10-31T06:55:51;99156.88;;;10.99;100.00
48606;BME280;8482;54.396;18.590;2023-10-31T06:58:17;99165.03;;;11.06;100.00
48606;BME280;8482;54.396;18.590;2023-10-31T07:00:43;99162.72;;;11.11;100.00
48606;BME280;8482;54.396;18.590;2023-10-31T07:03:08;99156.25;;;11.13;100.00
48606;BME280;8482;54.396;18.590;2023-10-31T07:05:37;99147.81;;;11.18;100.00
48606;BME280;8482;54.396;18.590;2023-10-31T07:08:04;99151.63;;;11.24;100.00
48606;BME280;8482;54.396;18.590;2023-10-31T07:10:30;99142.50;;;11.26;100.00
48606;BME280;8482;54.396;18.590;2023-10-31T07:12:56;99141.00;;;11.32;100.00
48606;BME280;8482;54.396;18.590;2023-10-31T07:15:26;99137.50;;;11.31;100.00
48606;BME280;8482;54.396;18.590;2023-10-31T07:17:52;99142.16;;;11.38;100.00
48606;BME280;8482;54.396;18.590;2023-10-31T07:20:18;99141.84;;;11.41;100.00
48606;BME280;8482;54.396;18.590;2023-10-31T07:22:44;99140.50;;;11.45;100.00
48606;BME280;8482;54.396;18.590;2023-10-31T07:25:11;99134.53;;;11.43;100.00
48606;BME280;8482;54.396;18.590;2023-10-31T07:27:37;99120.91;;;11.46;100.00
48606;BME280;8482;54.396;18.590;2023-10-31T07:30:03;99128.88;;;11.54;100.00
48606;BME280;8482;54.396;18.590;2023-10-31T07:32:31;99132.03;;;11.58;100.00
48606;BME280;8482;54.396;18.590;2023-10-31T07:34:58;99117.56;;;11.60;100.00
48606;BME280;8482;54.396;18.590;2023-10-31T07:37:24;99119.09;;;11.63;100.00
48606;BME280;8482;54.396;18.590;2023-10-31T07:39:50;99105.44;;;11.66;100.00
48606;BME280;8482;54.396;18.590;2023-10-31T07:42:19;99100.31;;;11.64;100.00
48606;BME280;8482;54.396;18.590;2023-10-31T07:44:45;99104.97;;;11.71;100.00
48606;BME280;8482;54.396;18.590;2023-10-31T07:47:11;99096.81;;;11.72;100.00
48606;BME280;8482;54.396;18.590;2023-10-31T07:49:37;99093.16;;;11.73;100.00
48606;BME280;8482;54.396;18.590;2023-10-31T07:52:03;99089.66;;;11.73;100.00
48606;BME280;8482;54.396;18.590;2023-10-31T07:54:28;99089.19;;;11.77;100.00
48606;BME280;8482;54.396;18.590;2023-10-31T07:56:54;99086.69;;;11.76;100.00
48606;BME280;8482;54.396;18.590;2023-10-31T07:59:20;99082.03;;;11.78;100.00
48606;BME280;8482;54.396;18.590;2023-10-31T08:01:46;99080.84;;;11.80;100.00
48606;BME280;8482;54.396;18.590;2023-10-31T08:04:14;99076.38;;;11.81;100.00
48606;BME280;8482;54.396;18.590;2023-10-31T08:06:41;99067.22;;;11.84;100.00
48606;BME280;8482;54.396;18.590;2023-10-31T08:09:07;99071.38;;;11.86;100.00
48606;BME280;8482;54.396;18.590;2023-10-31T08:11:33;99065.72;;;11.89;100.00
48606;BME280;8482;54.396;18.590;2023-10-31T08:14:01;99062.91;;;11.91;100.00
48606;BME280;8482;54.396;18.590;2023-10-31T08:16:27;99061.72;;;11.93;100.00
48606;BME280;8482;54.396;18.590;2023-10-31T08:18:54;99056.06;;;11.96;100.00
48606;BME280;8482;54.396;18.590;2023-10-31T08:21:20;99056.59;;;12.00;100.00
48606;BME280;8482;54.396;18.590;2023-10-31T08:23:45;99036.97;;;12.01;100.00
48606;BME280;8482;54.396;18.590;2023-10-31T08:26:12;99032.16;;;12.05;100.00
48606;BME280;8482;54.396;18.590;2023-10-31T08:28:39;99018.53;;;12.08;100.00
48606;BME280;8482;54.396;18.590;2023-10-31T08:31:05;99022.00;;;12.08;100.00
48606;BME280;8482;54.396;18.590;2023-10-31T08:33:31;99025.13;;;12.12;100.00
48606;BME280;8482;54.396;18.590;2023-10-31T08:35:56;99020.47;;;12.14;100.00
48606;BME280;8482;54.396;18.590;2023-10-31T08:38:22;99018.66;;;12.15;100.00
48606;BME280;8482;54.396;18.590;2023-10-31T08:40:48;99012.16;;;12.17;100.00
48606;BME280;8482;54.396;18.590;2023-10-31T08:43:14;99001.31;;;12.19;100.00
48606;BME280;8482;54.396;18.590;2023-10-31T08:45:40;98987.56;;;12.15;100.00
48606;BME280;8482;54.396;18.590;2023-10-31T08:48:06;99003.50;;;12.23;100.00
48606;BME280;8482;54.396;18.590;2023-10-31T08:50:32;99001.47;;;12.25;100.00
48606;BME280;8482;54.396;18.590;2023-10-31T08:52:58;98997.63;;;12.28;100.00
48606;BME280;8482;54.396;18.590;2023-10-31T08:55:24;98997.44;;;12.30;100.00
48606;BME280;8482;54.396;18.590;2023-10-31T08:57:49;98983.84;;;12.24;100.00
48606;BME280;8482;54.396;18.590;2023-10-31T09:00:18;98988.47;;;12.31;100.00
48606;BME280;8482;54.396;18.590;2023-10-31T09:02:45;98990.78;;;12.34;100.00
48606;BME280;8482;54.396;18.590;2023-10-31T09:05:11;98980.97;;;12.34;100.00
48606;BME280;8482;54.396;18.590;2023-10-31T09:07:36;98978.16;;;12.36;100.00
48606;BME280;8482;54.396;18.590;2023-10-31T09:10:02;98973.47;;;12.38;100.00
48606;BME280;8482;54.396;18.590;2023-10-31T09:12:30;98963.19;;;12.35;100.00
48606;BME280;8482;54.396;18.590;2023-10-31T09:14:56;98979.44;;;12.40;100.00
48606;BME280;8482;54.396;18.590;2023-10-31T09:17:22;98968.78;;;12.40;100.00
48606;BME280;8482;54.396;18.590;2023-10-31T09:19:48;98968.16;;;12.38;100.00
48606;BME280;8482;54.396;18.590;2023-10-31T09:22:14;98973.97;;;12.41;100.00
48606;BME280;8482;54.396;18.590;2023-10-31T09:24:40;98972.66;;;12.37;100.00
48606;BME280;8482;54.396;18.590;2023-10-31T09:27:06;98966.13;;;12.40;100.00
48606;BME280;8482;54.396;18.590;2023-10-31T09:29:31;98969.09;;;12.45;100.00
48606;BME280;8482;54.396;18.590;2023-10-31T09:31:57;98970.75;;;12.46;100.00
48606;BME280;8482;54.396;18.590;2023-10-31T09:34:24;98966.63;;;12.44;100.00
48606;BME280;8482;54.396;18.590;2023-10-31T09:36:50;98954.97;;;12.45;100.00
48606;BME280;8482;54.396;18.590;2023-10-31T09:39:16;98953.81;;;12.47;100.00
48606;BME280;8482;54.396;18.590;2023-10-31T09:41:41;98946.84;;;12.46;100.00
48606;BME280;8482;54.396;18.590;2023-10-31T09:44:07;98950.81;;;12.50;100.00
48606;BME280;8482;54.396;18.590;2023-10-31T09:46:35;98942.16;;;12.48;100.00
48606;BME280;8482;54.396;18.590;2023-10-31T09:49:01;98948.28;;;12.49;100.00
48606;BME280;8482;54.396;18.590;2023-10-31T09:51:28;98964.72;;;12.52;100.00
48606;BME280;8482;54.396;18.590;2023-10-31T09:53:54;98937.00;;;12.47;100.00
48606;BME280;8482;54.396;18.590;2023-10-31T09:56:21;98939.97;;;12.52;100.00
48606;BME280;8482;54.396;18.590;2023-10-31T09:58:47;98942.44;;;12.53;100.00
48606;BME280;8482;54.396;18.590;2023-10-31T10:01:13;98927.88;;;12.49;100.00
48606;BME280;8482;54.396;18.590;2023-10-31T10:03:42;98942.09;;;12.56;100.00
48606;BME280;8482;54.396;18.590;2023-10-31T10:06:10;98933.91;;;12.58;100.00
48606;BME280;8482;54.396;18.590;2023-10-31T10:08:39;98937.88;;;12.62;100.00
48606;BME280;8482;54.396;18.590;2023-10-31T10:11:05;98938.34;;;12.66;100.00
48606;BME280;8482;54.396;18.590;2023-10-31T10:13:32;98932.88;;;12.67;100.00
48606;BME280;8482;54.396;18.590;2023-10-31T10:15:59;98920.47;;;12.60;100.00
48606;BME280;8482;54.396;18.590;2023-10-31T10:18:31;98933.31;;;12.71;100.00
48606;BME280;8482;54.396;18.590;2023-10-31T10:20:59;98929.31;;;12.75;100.00
48606;BME280;8482;54.396;18.590;2023-10-31T10:23:26;98933.63;;;12.76;100.00
48606;BME280;8482;54.396;18.590;2023-10-31T10:25:54;98931.78;;;12.77;100.00
48606;BME280;8482;54.396;18.590;2023-10-31T10:28:21;98935.34;;;12.84;100.00
48606;BME280;8482;54.396;18.590;2023-10-31T10:30:48;98929.88;;;12.85;100.00
48606;BME280;8482;54.396;18.590;2023-10-31T10:33:15;98932.53;;;12.85;100.00
48606;BME280;8482;54.396;18.590;2023-10-31T10:35:42;98934.47;;;12.92;100.00
48606;BME280;8482;54.396;18.590;2023-10-31T10:38:16;98934.09;;;12.95;100.00
48606;BME280;8482;54.396;18.590;2023-10-31T10:40:47;98929.44;;;12.97;100.00
48606;BME280;8482;54.396;18.590;2023-10-31T10:43:25;98930.72;;;13.01;100.00
48606;BME280;8482;54.396;18.590;2023-10-31T10:45:58;98927.88;;;13.02;100.00
48606;BME280;8482;54.396;18.590;2023-10-31T10:48:26;98924.66;;;13.07;100.00
48606;BME280;8482;54.396;18.590;2023-10-31T10:51:51;98930.53;;;13.17;100.00
48606;BME280;8482;54.396;18.590;2023-10-31T10:54:32;98932.66;;;13.22;100.00
48606;BME280;8482;54.396;18.590;2023-10-31T10:57:38;98929.44;;;13.27;100.00
48606;BME280;8482;54.396;18.590;2023-10-31T11:00:09;98934.03;;;13.33;100.00
48606;BME280;8482;54.396;18.590;2023-10-31T11:02:40;98931.81;;;13.37;100.00
48606;BME280;8482;54.396;18.590;2023-10-31T11:05:09;98934.59;;;13.43;100.00
48606;BME280;8482;54.396;18.590;2023-10-31T11:07:37;98924.16;;;13.42;100.00
48606;BME280;8482;54.396;18.590;2023-10-31T11:10:04;98928.91;;;13.46;100.00
48606;BME280;8482;54.396;18.590;2023-10-31T11:12:32;98930.66;;;13.54;100.00
48606;BME280;8482;54.396;18.590;2023-10-31T11:15:01;98912.94;;;13.46;100.00
48606;BME280;8482;54.396;18.590;2023-10-31T11:17:34;98925.41;;;13.61;100.00
48606;BME280;8482;54.396;18.590;2023-10-31T11:20:02;98924.69;;;13.67;100.00
48606;BME280;8482;54.396;18.590;2023-10-31T11:22:43;98915.28;;;13.71;100.00
48606;BME280;8482;54.396;18.590;2023-10-31T11:25:18;98907.56;;;13.76;100.00
48606;BME280;8482;54.396;18.590;2023-10-31T11:27:46;98917.66;;;13.81;100.00
48606;BME280;8482;54.396;18.590;2023-10-31T11:30:33;98914.06;;;13.89;100.00
48606;BME280;8482;54.396;18.590;2023-10-31T11:32:59;98920.03;;;13.91;100.00
48606;BME280;8482;54.396;18.590;2023-10-31T11:35:30;98919.47;;;13.95;100.00
48606;BME280;8482;54.396;18.590;2023-10-31T11:38:09;98934.25;;;13.98;100.00
48606;BME280;8482;54.396;18.590;2023-10-31T11:41:03;98932.22;;;14.00;100.00
48606;BME280;8482;54.396;18.590;2023-10-31T11:43:50;98935.72;;;14.01;100.00
48606;BME280;8482;54.396;18.590;2023-10-31T11:46:24;98936.16;;;14.04;100.00
48606;BME280;8482;54.396;18.590;2023-10-31T11:48:52;98953.44;;;14.08;100.00
48606;BME280;8482;54.396;18.590;2023-10-31T11:51:19;98945.63;;;14.07;100.00
48606;BME280;8482;54.396;18.590;2023-10-31T11:53:45;98939.72;;;14.12;100.00
48606;BME280;8482;54.396;18.590;2023-10-31T11:56:12;98928.69;;;14.15;100.00
48606;BME280;8482;54.396;18.590;2023-10-31T11:58:38;98948.19;;;14.15;100.00
48606;BME280;8482;54.396;18.590;2023-10-31T12:01:06;98946.13;;;14.17;100.00
48606;BME280;8482;54.396;18.590;2023-10-31T12:03:41;98955.97;;;14.17;100.00
48606;BME280;8482;54.396;18.590;2023-10-31T12:06:09;98939.78;;;14.18;100.00
48606;BME280;8482;54.396;18.590;2023-10-31T12:08:41;98950.44;;;14.18;100.00
48606;BME280;8482;54.396;18.590;2023-10-31T12:11:21;98957.63;;;14.18;100.00
48606;BME280;8482;54.396;18.590;2023-10-31T12:14:02;98971.78;;;14.18;100.00
48606;BME280;8482;54.396;18.590;2023-10-31T12:16:33;98967.47;;;14.17;100.00
48606;BME280;8482;54.396;18.590;2023-10-31T12:19:02;98976.03;;;14.13;100.00
48606;BME280;8482;54.396;18.590;2023-10-31T12:21:45;98973.63;;;14.18;100.00
48606;BME280;8482;54.396;18.590;2023-10-31T12:24:17;98975.03;;;14.14;100.00
48606;BME280;8482;54.396;18.590;2023-10-31T12:26:46;98989.19;;;14.14;100.00
48606;BME280;8482;54.396;18.590;2023-10-31T12:29:20;99015.00;;;14.14;100.00
48606;BME280;8482;54.396;18.590;2023-10-31T12:31:54;99017.88;;;14.12;100.00
48606;BME280;8482;54.396;18.590;2023-10-31T12:34:23;98996.72;;;14.10;100.00
48606;BME280;8482;54.396;18.590;2023-10-31T12:36:52;98998.78;;;14.08;100.00
48606;BME280;8482;54.396;18.590;2023-10-31T12:39:24;99001.44;;;14.08;100.00
48606;BME280;8482;54.396;18.590;2023-10-31T12:41:52;99009.44;;;14.08;100.00
48606;BME280;8482;54.396;18.590;2023-10-31T12:44:24;99019.25;;;14.08;100.00
48606;BME280;8482;54.396;18.590;2023-10-31T12:46:51;99033.59;;;14.07;99.88
48606;BME280;8482;54.396;18.590;2023-10-31T12:49:19;99040.78;;;14.06;99.78
48606;BME280;8482;54.396;18.590;2023-10-31T12:52:04;99055.94;;;14.06;99.58
48606;BME280;8482;54.396;18.590;2023-10-31T12:54:36;99077.47;;;14.04;99.30
48606;BME280;8482;54.396;18.590;2023-10-31T12:57:11;99057.97;;;14.04;99.21